createdAt,value
2018-04-10T00:00:35.931Z,99675.06
2018-04-10T00:03:04.252Z,99676.45
2018-04-10T00:05:32.580Z,99674.82
2018-04-10T00:08:00.919Z,99666.34
2018-04-10T00:10:29.248Z,99678.34
2018-04-10T00:12:57.592Z,99678.39
2018-04-10T00:15:25.915Z,99679.31
2018-04-10T00:17:54.260Z,99689.36
2018-04-10T00:20:22.586Z,99688.52
2018-04-10T00:22:50.931Z,99688.17
2018-04-10T00:25:19.256Z,99682.38
2018-04-10T00:27:47.590Z,99680.50
2018-04-10T00:30:15.911Z,99680.57
2018-04-10T00:32:44.256Z,99677.40
2018-04-10T00:35:12.589Z,99669.62
2018-04-10T00:37:40.932Z,99672.58
2018-04-10T00:40:09.256Z,99672.92
2018-04-10T00:42:37.604Z,99682.33
2018-04-10T00:45:05.923Z,99687.94
2018-04-10T00:47:34.276Z,99691.35
2018-04-10T00:50:02.605Z,99695.30
2018-04-10T00:52:30.944Z,99697.59
2018-04-10T00:54:59.271Z,99691.52
2018-04-10T00:57:27.616Z,99689.55
2018-04-10T00:59:55.940Z,99683.52
2018-04-10T01:02:24.284Z,99688.42
2018-04-10T01:04:52.607Z,99683.42
2018-04-10T01:07:20.956Z,99687.95
2018-04-10T01:09:49.277Z,99684.94
2018-04-10T01:12:17.620Z,99678.89
2018-04-10T01:14:45.948Z,99679.48
2018-04-10T01:17:14.288Z,99682.89
2018-04-10T01:19:42.639Z,99676.84
2018-04-10T01:22:10.983Z,99677.12
2018-04-10T01:24:39.307Z,99677.61
2018-04-10T01:27:07.651Z,99675.09
2018-04-10T01:29:35.999Z,99674.42
2018-04-10T01:32:04.359Z,99671.23
2018-04-10T01:34:32.681Z,99675.84
2018-04-10T01:37:01.008Z,99675.88
2018-04-10T01:39:29.352Z,99679.52
2018-04-10T01:41:57.681Z,99670.02
2018-04-10T01:44:26.028Z,99674.05
2018-04-10T01:46:54.362Z,99673.66
2018-04-10T01:49:22.707Z,99672.66
2018-04-10T01:51:51.040Z,99678.00
2018-04-10T01:54:19.392Z,99682.73
2018-04-10T01:56:47.721Z,99679.22
2018-04-10T01:59:16.063Z,99682.25
2018-04-10T02:01:44.387Z,99689.02
2018-04-10T02:04:12.728Z,99685.24
2018-04-10T02:06:41.062Z,99688.41
2018-04-10T02:09:09.409Z,99684.00
2018-04-10T02:11:37.733Z,99680.46
2018-04-10T02:14:06.080Z,99675.59
2018-04-10T02:16:34.419Z,99681.91
2018-04-10T02:19:02.769Z,99676.97
2018-04-10T02:21:31.092Z,99678.39
2018-04-10T02:23:59.448Z,99684.27
2018-04-10T02:26:27.780Z,99681.48
2018-04-10T02:28:56.128Z,99681.73
2018-04-10T02:31:24.459Z,99680.84
2018-04-10T02:33:52.822Z,99682.81
2018-04-10T02:36:21.152Z,99686.88
2018-04-10T02:38:49.505Z,99682.69
2018-04-10T02:41:17.832Z,99690.83
2018-04-10T02:43:46.180Z,99686.84
2018-04-10T02:46:14.495Z,99687.92
2018-04-10T02:48:42.840Z,99689.86
2018-04-10T02:51:11.168Z,99682.83
2018-04-10T02:53:39.512Z,99686.20
2018-04-10T02:56:07.836Z,99681.23
2018-04-10T02:58:36.193Z,99678.45
2018-04-10T03:01:04.515Z,99672.33
2018-04-10T03:03:32.860Z,99674.88
2018-04-10T03:06:01.186Z,99668.25
2018-04-10T03:08:29.537Z,99671.42
2018-04-10T03:10:57.860Z,99674.09
2018-04-10T03:13:26.212Z,99674.48
2018-04-10T03:15:54.537Z,99672.20
2018-04-10T03:18:22.862Z,99675.73
2018-04-10T03:20:51.205Z,99671.66
2018-04-10T03:23:19.529Z,99671.06
2018-04-10T03:25:47.872Z,99673.34
2018-04-10T03:28:16.209Z,99679.09
2018-04-10T03:30:44.558Z,99680.41
2018-04-10T03:33:12.888Z,99682.95
2018-04-10T03:35:41.235Z,99676.81
2018-04-10T03:38:09.560Z,99678.30
2018-04-10T03:40:37.914Z,99681.50
2018-04-10T03:43:06.236Z,99684.78
2018-04-10T03:45:34.589Z,99687.20
2018-04-10T03:48:02.911Z,99688.71
2018-04-10T03:50:31.265Z,99693.05
2018-04-10T03:52:59.592Z,99692.71
2018-04-10T03:55:27.935Z,99696.42
2018-04-10T03:57:56.260Z,99699.66
2018-04-10T04:00:24.608Z,99704.70
2018-04-10T04:02:52.941Z,99706.50
2018-04-10T04:05:21.288Z,99702.34
2018-04-10T04:07:49.611Z,99702.58
2018-04-10T04:10:17.960Z,99707.16
2018-04-10T04:12:46.280Z,99706.98
2018-04-10T04:15:14.624Z,99706.30
2018-04-10T04:17:42.953Z,99705.66
2018-04-10T04:20:23.124Z,99711.65
2018-04-10T04:22:51.459Z,99719.58
2018-04-10T04:25:19.812Z,99724.00
2018-04-10T04:27:48.142Z,99722.27
2018-04-10T04:30:16.492Z,99720.98
2018-04-10T04:32:44.816Z,99717.87
2018-04-10T04:35:13.172Z,99714.81
2018-04-10T04:37:41.496Z,99715.67
2018-04-10T04:40:09.857Z,99714.95
2018-04-10T04:42:38.172Z,99721.00
2018-04-10T04:45:06.531Z,99717.83
2018-04-10T04:47:34.865Z,99719.41
2018-04-10T04:50:03.224Z,99719.06
2018-04-10T04:52:31.540Z,99720.06
2018-04-10T04:54:59.892Z,99723.05
2018-04-10T04:57:28.211Z,99728.02
2018-04-10T04:59:56.560Z,99720.59
2018-04-10T05:02:24.900Z,99722.66
2018-04-10T05:04:53.260Z,99719.02
2018-04-10T05:07:21.583Z,99722.54
2018-04-10T05:09:49.939Z,99733.52
2018-04-10T05:12:18.264Z,99732.17
2018-04-10T05:14:46.620Z,99738.88
2018-04-10T05:17:14.947Z,99743.03
2018-04-10T05:19:43.304Z,99753.75
2018-04-10T05:22:11.636Z,99756.75
2018-04-10T05:24:39.992Z,99753.64
2018-04-10T05:27:08.329Z,99760.61
2018-04-10T05:29:36.655Z,99752.86
2018-04-10T05:32:05.012Z,99756.30
2018-04-10T05:34:33.340Z,99752.50
2018-04-10T05:37:01.692Z,99752.22
2018-04-10T05:39:30.019Z,99750.45
2018-04-10T05:41:58.373Z,99748.93
2018-04-10T05:44:26.716Z,99749.78
2018-04-10T05:46:55.069Z,99754.53
2018-04-10T05:49:23.404Z,99754.17
2018-04-10T05:51:51.765Z,99753.77
2018-04-10T05:54:20.092Z,99752.44
2018-04-10T05:56:48.452Z,99756.61
2018-04-10T05:59:16.783Z,99752.60
2018-04-10T06:01:45.137Z,99753.14
2018-04-10T06:04:13.460Z,99755.32
2018-04-10T06:06:41.806Z,99762.48
2018-04-10T06:09:10.144Z,99767.76
2018-04-10T06:11:38.500Z,99770.16
2018-04-10T06:14:06.840Z,99767.02
2018-04-10T06:16:35.184Z,99774.52
2018-04-10T06:19:03.529Z,99774.78
2018-04-10T06:21:31.884Z,99769.58
2018-04-10T06:24:00.962Z,99772.07
2018-04-10T06:26:29.309Z,99768.31
2018-04-10T06:28:57.641Z,99768.35
2018-04-10T06:31:25.997Z,99772.44
2018-04-10T06:33:54.336Z,99773.30
2018-04-10T06:36:23.684Z,99773.27
2018-04-10T06:38:52.025Z,99777.53
2018-04-10T06:41:20.367Z,99774.34
2018-04-10T06:43:48.709Z,99766.80
2018-04-10T06:46:17.066Z,99772.80
2018-04-10T06:48:45.393Z,99773.48
2018-04-10T06:51:13.744Z,99773.05
2018-04-10T06:53:42.081Z,99786.30
2018-04-10T06:56:10.432Z,99789.31
2018-04-10T06:58:38.759Z,99791.83
2018-04-10T07:01:07.116Z,99786.11
2018-04-10T07:03:35.453Z,99786.38
2018-04-10T07:06:03.814Z,99786.12
2018-04-10T07:08:32.174Z,99787.63
2018-04-10T07:11:00.624Z,99789.84
2018-04-10T07:13:28.964Z,99792.29
2018-04-10T07:15:57.308Z,99798.19
2018-04-10T07:18:25.639Z,99796.69
2018-04-10T07:20:54.147Z,99796.72
2018-04-10T07:23:22.689Z,99808.83
2018-04-10T07:25:51.003Z,99815.16
2018-04-10T07:28:19.368Z,99811.95
2018-04-10T07:30:47.708Z,99820.40
2018-04-10T07:33:16.062Z,99823.72
2018-04-10T07:35:44.393Z,99825.48
2018-04-10T07:38:12.740Z,99824.53
2018-04-10T07:40:41.071Z,99821.63
2018-04-10T07:43:09.856Z,99818.52
2018-04-10T07:45:38.189Z,99826.86
2018-04-10T07:48:06.540Z,99829.35
2018-04-10T07:50:34.864Z,99833.41
2018-04-10T07:53:03.208Z,99830.89
2018-04-10T07:55:31.541Z,99828.71
2018-04-10T07:57:59.899Z,99833.36
2018-04-10T08:00:28.235Z,99827.55
2018-04-10T08:02:56.587Z,99828.48
2018-04-10T08:05:24.922Z,99826.65
2018-04-10T08:07:53.273Z,99822.79
2018-04-10T08:10:21.596Z,99815.69
2018-04-10T08:12:49.949Z,99811.43
2018-04-10T08:15:18.283Z,99816.92
2018-04-10T08:17:46.629Z,99819.93
2018-04-10T08:20:14.959Z,99815.16
2018-04-10T08:22:44.187Z,99818.37
2018-04-10T08:25:12.524Z,99820.73
2018-04-10T08:27:40.872Z,99821.31
2018-04-10T08:30:09.206Z,99825.63
2018-04-10T08:32:37.556Z,99823.03
2018-04-10T08:35:05.888Z,99819.20
2018-04-10T08:37:34.240Z,99821.95
2018-04-10T08:40:02.563Z,99818.77
2018-04-10T08:42:30.912Z,99821.96
2018-04-10T08:44:59.251Z,99818.45
2018-04-10T08:47:27.596Z,99820.47
2018-04-10T08:49:55.928Z,99818.72
2018-04-10T08:52:24.280Z,99819.91
2018-04-10T08:54:52.604Z,99823.78
2018-04-10T08:57:20.956Z,99814.88
2018-04-10T08:59:49.288Z,99813.11
2018-04-10T09:02:18.516Z,99817.66
2018-04-10T09:04:46.844Z,99816.08
2018-04-10T09:07:15.196Z,99815.92
2018-04-10T09:09:43.532Z,99814.44
2018-04-10T09:12:11.884Z,99811.22
2018-04-10T09:14:40.222Z,99804.34
2018-04-10T09:17:08.569Z,99809.45
2018-04-10T09:19:36.898Z,99811.06
2018-04-10T09:22:05.244Z,99815.34
2018-04-10T09:24:33.576Z,99817.84
2018-04-10T09:27:01.977Z,99821.45
2018-04-10T09:29:30.296Z,99820.68
2018-04-10T09:31:58.630Z,99824.70
2018-04-10T09:34:26.985Z,99819.55
2018-04-10T09:36:55.310Z,99822.94
2018-04-10T09:39:23.664Z,99824.33
2018-04-10T09:41:52.865Z,99818.30
2018-04-10T09:44:21.224Z,99813.70
2018-04-10T09:46:49.557Z,99815.95
2018-04-10T09:49:17.912Z,99821.47
2018-04-10T09:51:46.246Z,99821.94
2018-04-10T09:54:14.601Z,99831.22
2018-04-10T09:56:42.937Z,99839.33
2018-04-10T09:59:11.289Z,99837.28
2018-04-10T10:01:39.753Z,99832.50
2018-04-10T10:04:08.944Z,99829.90
2018-04-10T10:06:37.281Z,99821.39
2018-04-10T10:09:06.440Z,99823.63
2018-04-10T10:11:34.772Z,99823.36
2018-04-10T10:14:03.133Z,99826.41
2018-04-10T10:16:32.409Z,99824.48
2018-04-10T10:19:00.765Z,99820.86
2018-04-10T10:21:29.096Z,99823.31
2018-04-10T10:23:57.460Z,99837.58
2018-04-10T10:26:25.793Z,99830.93
2018-04-10T10:28:54.152Z,99833.17
2018-04-10T10:31:22.484Z,99829.91
2018-04-10T10:33:50.836Z,99829.66
2018-04-10T10:36:19.168Z,99831.59
2018-04-10T10:38:47.538Z,99831.98
2018-04-10T10:41:15.868Z,99830.51
2018-04-10T10:43:44.225Z,99827.59
2018-04-10T10:46:12.556Z,99827.37
2018-04-10T10:48:40.965Z,99829.59
2018-04-10T10:51:09.352Z,99829.24
2018-04-10T10:53:37.702Z,99819.39
2018-04-10T10:56:06.040Z,99823.95
2018-04-10T10:58:34.396Z,99824.41
2018-04-10T11:01:02.779Z,99823.50
2018-04-10T11:03:31.094Z,99822.81
2018-04-10T11:05:59.429Z,99816.13
2018-04-10T11:08:27.788Z,99816.60
2018-04-10T11:10:56.117Z,99819.48
2018-04-10T11:13:24.472Z,99818.00
2018-04-10T11:15:52.797Z,99825.42
2018-04-10T11:18:21.156Z,99820.56
2018-04-10T11:20:49.497Z,99817.86
2018-04-10T11:23:17.857Z,99823.73
2018-04-10T11:25:46.193Z,99827.31
2018-04-10T11:28:14.548Z,99814.30
2018-04-10T11:30:42.881Z,99820.39
2018-04-10T11:33:11.214Z,99815.14
2018-04-10T11:35:39.572Z,99814.72
2018-04-10T11:38:07.901Z,99827.73
2018-04-10T11:40:36.309Z,99817.97
2018-04-10T11:43:04.641Z,99820.00
2018-04-10T11:45:32.992Z,99819.88
2018-04-10T11:48:01.330Z,99819.08
2018-04-10T11:50:29.681Z,99813.53
2018-04-10T11:52:58.017Z,99812.00
2018-04-10T11:55:26.368Z,99815.18
2018-04-10T11:57:54.700Z,99810.41
2018-04-10T12:00:23.126Z,99813.91
2018-04-10T12:02:51.453Z,99814.71
2018-04-10T12:05:19.804Z,99809.08
2018-04-10T12:07:48.141Z,99808.51
2018-04-10T12:10:16.492Z,99806.42
2018-04-10T12:12:44.824Z,99804.16
2018-04-10T12:15:13.173Z,99811.86
2018-04-10T12:17:41.504Z,99815.22
2018-04-10T12:20:10.744Z,99809.38
2018-04-10T12:22:39.071Z,99814.38
2018-04-10T12:25:07.430Z,99801.67
2018-04-10T12:27:35.758Z,99815.05
2018-04-10T12:30:04.116Z,99812.02
2018-04-10T12:32:32.452Z,99810.33
2018-04-10T12:35:00.809Z,99818.68
2018-04-10T12:37:29.136Z,99809.58
2018-04-10T12:39:57.651Z,99803.81
2018-04-10T12:42:25.965Z,99814.05
2018-04-10T12:44:54.316Z,99800.28
2018-04-10T12:47:22.652Z,99800.53
2018-04-10T12:49:51.000Z,99795.82
2018-04-10T12:52:19.330Z,99794.02
2018-04-10T12:54:47.680Z,99792.79
2018-04-10T12:57:16.008Z,99796.72
2018-04-10T12:59:45.083Z,99792.39
2018-04-10T13:02:13.474Z,99797.78
2018-04-10T13:04:41.773Z,99791.13
2018-04-10T13:07:10.113Z,99795.05
2018-04-10T13:09:38.465Z,99782.36
2018-04-10T13:12:06.787Z,99784.78
2018-04-10T13:14:35.140Z,99783.95
2018-04-10T13:17:03.469Z,99777.54
2018-04-10T13:19:31.821Z,99777.63
2018-04-10T13:22:00.152Z,99770.34
2018-04-10T13:24:28.495Z,99776.53
2018-04-10T13:26:56.944Z,99765.00
2018-04-10T13:29:25.334Z,99771.06
2018-04-10T13:31:53.670Z,99769.86
2018-04-10T13:34:21.994Z,99772.89
2018-04-10T13:36:50.345Z,99771.73
2018-04-10T13:39:19.396Z,99760.56
2018-04-10T13:41:47.756Z,99764.02
2018-04-10T13:44:16.089Z,99767.98
2018-04-10T13:46:44.439Z,99768.88
2018-04-10T13:49:12.773Z,99766.83
2018-04-10T13:51:41.120Z,99756.38
2018-04-10T13:54:09.447Z,99757.36
2018-04-10T13:56:37.805Z,99748.59
2018-04-10T13:59:06.144Z,99755.86
2018-04-10T14:01:34.538Z,99754.49
2018-04-10T14:04:02.886Z,99751.73
2018-04-10T14:06:31.240Z,99746.30
2018-04-10T14:08:59.572Z,99749.48
2018-04-10T14:11:28.048Z,99742.63
2018-04-10T14:13:56.368Z,99738.42
2018-04-10T14:16:24.717Z,99729.81
2018-04-10T14:18:53.058Z,99729.30
2018-04-10T14:21:21.500Z,99739.42
2018-04-10T14:23:49.833Z,99727.46
2018-04-10T14:26:18.408Z,99728.41
2018-04-10T14:28:46.795Z,99728.29
2018-04-10T14:31:15.178Z,99720.20
2018-04-10T14:33:43.512Z,99721.39
2018-04-10T14:36:11.897Z,99723.31
2018-04-10T14:38:40.212Z,99720.22
2018-04-10T14:41:08.569Z,99717.48
2018-04-10T14:43:36.904Z,99715.61
2018-04-10T14:46:05.251Z,99715.14
2018-04-10T14:48:33.734Z,99712.86
2018-04-10T14:51:02.072Z,99707.36
2018-04-10T14:53:30.424Z,99705.72
2018-04-10T14:55:58.752Z,99711.09
2018-04-10T14:58:27.096Z,99704.29
2018-04-10T15:00:55.436Z,99708.21
2018-04-10T15:03:23.760Z,99709.86
2018-04-10T15:05:52.123Z,99702.36
2018-04-10T15:08:20.455Z,99701.73
2018-04-10T15:10:48.949Z,99701.24
2018-04-10T15:13:17.268Z,99703.26
2018-04-10T15:15:45.924Z,99709.14
2018-04-10T15:18:14.256Z,99698.28
2018-04-10T15:20:42.796Z,99704.46
2018-04-10T15:23:11.124Z,99703.56
2018-04-10T15:25:39.471Z,99699.44
2018-04-10T15:28:07.828Z,99700.89
2018-04-10T15:30:36.185Z,99703.80
2018-04-10T15:33:04.517Z,99698.55
2018-04-10T15:35:33.663Z,99699.65
2018-04-10T15:38:02.017Z,99699.65
2018-04-10T15:40:30.372Z,99702.48
2018-04-10T15:42:58.724Z,99698.69
2018-04-10T15:45:27.057Z,99698.20
2018-04-10T15:47:55.404Z,99699.78
2018-04-10T15:50:23.779Z,99700.86
2018-04-10T15:52:52.132Z,99701.21
2018-04-10T15:55:21.376Z,99698.39
2018-04-10T15:57:49.932Z,99695.37
2018-04-10T16:00:18.269Z,99695.91
2018-04-10T16:02:46.624Z,99699.80
2018-04-10T16:05:14.952Z,99700.98
2018-04-10T16:07:43.304Z,99693.98
2018-04-10T16:10:11.633Z,99687.87
2018-04-10T16:12:40.936Z,99681.34
2018-04-10T16:15:09.261Z,99682.55
2018-04-10T16:17:37.615Z,99684.48
2018-04-10T16:20:05.944Z,99684.01
2018-04-10T16:22:34.297Z,99680.57
2018-04-10T16:25:02.629Z,99676.89
2018-04-10T16:27:30.977Z,99680.45
2018-04-10T16:29:59.308Z,99682.27
2018-04-10T16:32:27.669Z,99677.78
2018-04-10T16:34:55.999Z,99679.92
2018-04-10T16:37:24.343Z,99679.45
2018-04-10T16:39:52.674Z,99675.50
2018-04-10T16:42:21.025Z,99675.32
2018-04-10T16:44:49.356Z,99667.84
2018-04-10T16:47:17.728Z,99682.95
2018-04-10T16:49:46.040Z,99680.72
2018-04-10T16:52:14.396Z,99678.79
2018-04-10T16:54:43.656Z,99680.92
2018-04-10T16:57:12.011Z,99682.97
2018-04-10T16:59:40.340Z,99684.39
2018-04-10T17:02:08.700Z,99689.16
2018-04-10T17:04:37.032Z,99689.09
2018-04-10T17:07:06.304Z,99688.02
2018-04-10T17:09:34.636Z,99690.58
2018-04-10T17:12:03.023Z,99693.24
2018-04-10T17:14:31.348Z,99692.56
2018-04-10T17:16:59.701Z,99692.62
2018-04-10T17:19:28.036Z,99695.48
2018-04-10T17:21:56.395Z,99690.06
2018-04-10T17:24:24.723Z,99690.16
2018-04-10T17:26:53.068Z,99689.02
2018-04-10T17:29:21.400Z,99695.70
2018-04-10T17:31:49.773Z,99692.87
2018-04-10T17:34:19.125Z,99699.62
2018-04-10T17:36:47.505Z,99698.57
2018-04-10T17:39:15.828Z,99702.86
2018-04-10T17:41:44.163Z,99699.57
2018-04-10T17:44:12.513Z,99699.92
2018-04-10T17:46:40.839Z,99707.89
2018-04-10T17:49:09.195Z,99710.03
2018-04-10T17:51:37.529Z,99716.85
2018-04-10T17:54:06.781Z,99714.75
2018-04-10T17:56:36.075Z,99714.31
2018-04-10T17:59:04.429Z,99724.19
2018-04-10T18:01:32.763Z,99726.59
2018-04-10T18:04:01.120Z,99722.83
2018-04-10T18:06:30.413Z,99734.57
2018-04-10T18:08:58.761Z,99729.31
2018-04-10T18:11:27.087Z,99734.86
2018-04-10T18:13:55.444Z,99737.16
2018-04-10T18:16:24.736Z,99751.50
2018-04-10T18:18:53.128Z,99753.81
2018-04-10T18:21:21.460Z,99752.23
2018-04-10T18:23:49.819Z,99767.19
2018-04-10T18:26:18.416Z,99759.58
2018-04-10T18:28:46.744Z,99765.36
2018-04-10T18:31:15.071Z,99773.59
2018-04-10T18:33:43.425Z,99784.61
2018-04-10T18:36:11.774Z,99779.50
2018-04-10T18:38:40.121Z,99793.64
2018-04-10T18:41:08.444Z,99792.16
2018-04-10T18:43:36.803Z,99803.33
2018-04-10T18:46:05.124Z,99802.44
2018-04-10T18:48:33.473Z,99814.69
2018-04-10T18:51:01.809Z,99820.48
2018-04-10T18:53:30.152Z,99817.51
2018-04-10T18:55:58.481Z,99823.45
2018-04-10T18:58:26.835Z,99835.98
2018-04-10T19:00:55.164Z,99842.52
2018-04-10T19:03:23.538Z,99837.41
2018-04-10T19:05:51.869Z,99843.77
2018-04-10T19:08:20.220Z,99846.98
2018-04-10T19:10:48.552Z,99853.21
2018-04-10T19:13:17.316Z,99848.54
2018-04-10T19:15:45.647Z,99846.92
2018-04-10T19:18:14.005Z,99851.02
2018-04-10T19:20:42.328Z,99857.94
2018-04-10T19:23:10.724Z,99858.45
2018-04-10T19:25:39.178Z,99875.39
2018-04-10T19:28:07.492Z,99873.65
2018-04-10T19:30:35.844Z,99873.79
2018-04-10T19:33:04.171Z,99867.91
2018-04-10T19:35:32.529Z,99870.39
2018-04-10T19:38:00.868Z,99873.25
2018-04-10T19:40:29.219Z,99872.84
2018-04-10T19:42:57.543Z,99876.22
2018-04-10T19:45:26.158Z,99872.12
2018-04-10T19:47:54.491Z,99878.81
2018-04-10T19:50:22.884Z,99882.88
2018-04-10T19:52:51.562Z,99888.43
2018-04-10T19:55:19.901Z,99883.75
2018-04-10T19:57:48.234Z,99889.51
2018-04-10T20:00:16.598Z,99883.89
2018-04-10T20:02:44.923Z,99883.44
2018-04-10T20:05:13.276Z,99894.52
2018-04-10T20:07:41.603Z,99896.97
2018-04-10T20:10:09.952Z,99907.87
2018-04-10T20:12:38.276Z,99912.58
2018-04-10T20:15:06.627Z,99917.94
2018-04-10T20:17:34.961Z,99939.23
2018-04-10T20:20:03.307Z,99936.84
2018-04-10T20:22:31.636Z,99929.50
2018-04-10T20:24:59.984Z,99923.83
2018-04-10T20:27:28.309Z,99928.04
2018-04-10T20:29:56.662Z,99924.08
2018-04-10T20:32:24.988Z,99928.69
2018-04-10T20:34:53.332Z,99934.66
2018-04-10T20:37:21.660Z,99937.55
2018-04-10T20:39:50.016Z,99942.72
2018-04-10T20:42:18.336Z,99943.62
2018-04-10T20:44:46.691Z,99953.55
2018-04-10T20:47:15.111Z,99947.00
2018-04-10T20:49:43.448Z,99951.17
2018-04-10T20:52:11.771Z,99948.30
2018-04-10T20:54:40.168Z,99957.30
2018-04-10T20:57:08.496Z,99959.92
2018-04-10T20:59:36.818Z,99961.44
2018-04-10T21:02:05.165Z,99960.81
2018-04-10T21:04:33.488Z,99958.30
2018-04-10T21:07:01.835Z,99959.76
2018-04-10T21:09:30.160Z,99959.69
2018-04-10T21:11:58.578Z,99962.63
2018-04-10T21:14:26.893Z,99959.71
2018-04-10T21:16:55.239Z,99967.41
2018-04-10T21:19:23.564Z,99970.60
2018-04-10T21:21:51.907Z,99979.92
2018-04-10T21:24:20.231Z,99971.83
2018-04-10T21:26:48.575Z,99980.00
2018-04-10T21:29:16.900Z,99981.95
2018-04-10T21:31:45.287Z,99989.62
2018-04-10T21:34:13.600Z,99985.13
2018-04-10T21:36:41.944Z,99993.59
2018-04-10T21:39:10.270Z,99990.52
2018-04-10T21:41:38.619Z,100000.34
2018-04-10T21:44:06.944Z,99989.33
2018-04-10T21:46:35.296Z,100004.30
2018-04-10T21:49:03.635Z,100005.80
2018-04-10T21:51:31.988Z,100002.71
2018-04-10T21:54:00.364Z,100004.51
2018-04-10T21:56:28.716Z,100015.23
2018-04-10T21:58:57.048Z,100011.64
2018-04-10T22:01:25.404Z,100018.16
2018-04-10T22:03:53.737Z,100022.49
2018-04-10T22:06:22.100Z,100015.92
2018-04-10T22:08:50.468Z,100019.94
2018-04-10T22:11:18.789Z,100025.69
2018-04-10T22:13:47.120Z,100014.83
2018-04-10T22:16:15.471Z,100025.16
2018-04-10T22:18:43.805Z,100025.88
2018-04-10T22:21:12.152Z,100032.40
2018-04-10T22:23:40.492Z,100044.59
2018-04-10T22:26:08.860Z,100046.55
2018-04-10T22:28:37.209Z,100049.55
2018-04-10T22:31:05.560Z,100058.71
2018-04-10T22:33:33.872Z,100063.53
2018-04-10T22:36:02.228Z,100049.73
2018-04-10T22:38:30.569Z,100051.29
2018-04-10T22:40:58.998Z,100054.41
2018-04-10T22:43:27.320Z,100053.64
2018-04-10T22:45:55.720Z,100060.17
2018-04-10T22:48:24.025Z,100062.34
2018-04-10T22:50:52.388Z,100057.41
2018-04-10T22:53:20.755Z,100070.66
2018-04-10T22:55:49.113Z,100070.16
2018-04-10T22:58:17.460Z,100060.72
2018-04-10T23:00:52.470Z,100072.39
2018-04-10T23:03:20.806Z,100074.20
2018-04-10T23:05:49.157Z,100075.81
2018-04-10T23:08:17.523Z,100076.73
2018-04-10T23:10:45.873Z,100078.58
2018-04-10T23:13:14.237Z,100076.13
2018-04-10T23:15:42.576Z,100077.20
2018-04-10T23:18:10.940Z,100081.98
2018-04-10T23:20:39.286Z,100083.88
2018-04-10T23:23:07.644Z,100090.55
2018-04-10T23:25:35.993Z,100079.72
2018-04-10T23:28:04.353Z,100091.73
2018-04-10T23:30:32.700Z,100095.42
2018-04-10T23:33:01.064Z,100090.64
2018-04-10T23:35:29.414Z,100099.42
2018-04-10T23:37:57.774Z,100093.18
2018-04-10T23:40:26.115Z,100086.91
2018-04-10T23:42:54.472Z,100081.41
2018-04-10T23:45:22.813Z,100082.42
2018-04-10T23:47:51.177Z,100089.69
2018-04-10T23:50:19.519Z,100091.37
2018-04-10T23:52:47.873Z,100081.13
2018-04-10T23:55:16.208Z,100090.78
2018-04-10T23:57:44.570Z,100087.90
